createdAt,value
2023-03-21T00:00:29.157Z,7.62
2023-03-21T00:02:55.905Z,7.62
2023-03-21T00:05:22.915Z,7.66
2023-03-21T00:07:49.449Z,7.60
2023-03-21T00:10:23.951Z,7.53
2023-03-21T00:12:56.558Z,7.44
2023-03-21T00:15:27.561Z,7.40
2023-03-21T00:17:57.706Z,7.47
2023-03-21T00:20:24.476Z,7.45
2023-03-21T00:22:51.026Z,7.51
2023-03-21T00:25:17.691Z,7.49
2023-03-21T00:28:00.972Z,7.35
2023-03-21T00:30:30.857Z,7.32
2023-03-21T00:32:58.477Z,7.37
2023-03-21T00:35:57.996Z,7.32
2023-03-21T00:38:15.231Z,7.32
2023-03-21T00:40:48.776Z,7.38
2023-03-21T00:43:17.210Z,7.37
2023-03-21T00:45:45.341Z,7.41
2023-03-21T00:48:12.602Z,7.49
2023-03-21T00:50:40.118Z,7.49
2023-03-21T00:53:07.201Z,7.62
2023-03-21T00:55:34.186Z,7.59
2023-03-21T00:58:02.401Z,7.77
2023-03-21T01:00:29.897Z,7.83
2023-03-21T01:03:04.458Z,7.80
2023-03-21T01:05:40.469Z,7.79
2023-03-21T01:08:20.669Z,7.83
2023-03-21T01:10:51.808Z,7.75
2023-03-21T01:13:20.898Z,7.68
2023-03-21T01:15:54.848Z,7.78
2023-03-21T01:18:26.029Z,7.86
2023-03-21T01:20:54.222Z,7.92
2023-03-21T01:23:20.926Z,7.94
2023-03-21T01:25:49.496Z,7.96
2023-03-21T01:28:16.447Z,7.96
2023-03-21T01:30:47.934Z,7.93
2023-03-21T01:33:15.083Z,7.93
2023-03-21T01:35:50.485Z,7.91
2023-03-21T01:38:21.900Z,7.75
2023-03-21T01:40:49.848Z,7.52
2023-03-21T01:43:34.951Z,7.62
2023-03-21T01:46:20.819Z,7.59
2023-03-21T01:49:02.502Z,7.57
2023-03-21T01:51:32.334Z,7.63
2023-03-21T01:53:59.150Z,7.52
2023-03-21T01:56:32.877Z,7.49
2023-03-21T01:59:07.814Z,7.49
2023-03-21T02:01:34.621Z,7.52
2023-03-21T02:04:02.182Z,7.55
2023-03-21T02:06:36.593Z,7.55
2023-03-21T02:09:09.906Z,7.43
2023-03-21T02:11:37.985Z,7.37
2023-03-21T02:14:07.065Z,7.19
2023-03-21T02:16:43.125Z,7.13
2023-03-21T02:19:53.769Z,6.99
2023-03-21T02:22:41.628Z,6.92
2023-03-21T02:25:21.764Z,6.88
2023-03-21T02:28:21.729Z,6.95
2023-03-21T02:31:24.738Z,6.96
2023-03-21T02:34:13.248Z,6.83
2023-03-21T02:37:00.660Z,6.85
2023-03-21T02:39:56.131Z,6.73
2023-03-21T02:42:59.492Z,6.74
2023-03-21T02:45:34.494Z,6.70
2023-03-21T02:48:07.016Z,6.78
2023-03-21T02:50:33.695Z,6.81
2023-03-21T02:53:07.204Z,6.52
2023-03-21T02:55:36.614Z,6.59
2023-03-21T02:58:13.304Z,6.52
2023-03-21T03:00:40.452Z,6.53
2023-03-21T03:03:10.470Z,6.58
2023-03-21T03:05:47.168Z,6.70
2023-03-21T03:09:01.483Z,6.76
2023-03-21T03:11:33.180Z,6.71
2023-03-21T03:17:30.596Z,6.57
2023-03-21T03:20:22.176Z,6.41
2023-03-21T03:22:54.831Z,6.44
2023-03-21T03:25:41.517Z,6.48
2023-03-21T03:28:11.333Z,6.51
2023-03-21T03:30:46.555Z,6.51
2023-03-21T03:33:19.877Z,6.53
2023-03-21T03:35:55.756Z,6.60
2023-03-21T03:38:27.365Z,6.60
2023-03-21T03:41:02.391Z,6.58
2023-03-21T03:43:41.419Z,6.51
2023-03-21T03:46:17.942Z,6.51
2023-03-21T03:49:07.914Z,6.60
2023-03-21T03:51:52.486Z,6.55
2023-03-21T03:54:37.036Z,6.51
2023-03-21T03:57:05.582Z,6.52
2023-03-21T03:59:35.780Z,6.48
2023-03-21T04:02:02.525Z,6.48
2023-03-21T04:04:29.174Z,6.58
2023-03-21T04:06:57.981Z,6.55
2023-03-21T04:09:37.442Z,6.47
2023-03-21T04:12:10.101Z,6.57
2023-03-21T04:14:44.359Z,6.61
2023-03-21T04:17:11.562Z,6.61
2023-03-21T04:19:38.367Z,6.58
2023-03-21T04:22:04.858Z,6.60
2023-03-21T04:24:31.562Z,6.57
2023-03-21T04:26:58.093Z,6.61
2023-03-21T04:29:24.602Z,6.63
2023-03-21T04:31:51.186Z,6.61
2023-03-21T04:34:17.719Z,6.60
2023-03-21T04:36:44.299Z,6.62
2023-03-21T04:39:10.984Z,6.65
2023-03-21T04:41:38.970Z,6.60
2023-03-21T04:44:05.862Z,6.57
2023-03-21T04:46:32.752Z,6.58
2023-03-21T04:48:59.603Z,6.60
2023-03-21T04:51:26.357Z,6.66
2023-03-21T04:53:53.043Z,6.54
2023-03-21T04:56:19.534Z,6.55
2023-03-21T04:58:46.041Z,6.72
2023-03-21T05:01:12.640Z,6.74
2023-03-21T05:03:40.502Z,6.72
2023-03-21T05:06:08.516Z,6.61
2023-03-21T05:08:38.071Z,6.62
2023-03-21T05:11:05.568Z,6.69
2023-03-21T05:13:32.102Z,6.75
2023-03-21T05:15:58.671Z,6.73
2023-03-21T05:18:25.415Z,6.75
2023-03-21T05:20:53.537Z,6.85
2023-03-21T05:23:21.386Z,6.78
2023-03-21T05:25:48.208Z,6.59
2023-03-21T05:28:14.835Z,6.68
2023-03-21T05:30:41.568Z,6.74
2023-03-21T05:33:08.165Z,6.65
2023-03-21T05:35:34.946Z,6.62
2023-03-21T05:38:01.758Z,6.68
2023-03-21T05:40:28.267Z,6.58
2023-03-21T05:42:54.928Z,6.43
2023-03-21T05:45:21.480Z,6.67
2023-03-21T05:47:48.009Z,6.74
2023-03-21T05:50:14.869Z,6.69
2023-03-21T05:52:41.430Z,6.73
2023-03-21T05:55:08.535Z,6.85
2023-03-21T05:57:35.211Z,6.66
2023-03-21T06:00:02.094Z,6.64
2023-03-21T06:02:28.858Z,6.59
2023-03-21T06:04:55.427Z,6.74
2023-03-21T06:07:21.933Z,6.83
2023-03-21T06:09:48.572Z,7.02
2023-03-21T06:12:15.240Z,6.93
2023-03-21T06:14:41.826Z,7.49
2023-03-21T06:17:08.390Z,7.61
2023-03-21T06:19:34.989Z,7.85
2023-03-21T06:22:01.527Z,8.53
2023-03-21T06:24:28.080Z,9.67
2023-03-21T06:26:54.620Z,9.85
2023-03-21T06:29:21.355Z,9.62
2023-03-21T06:31:48.085Z,9.71
2023-03-21T06:34:14.814Z,9.87
2023-03-21T06:36:41.393Z,9.93
2023-03-21T06:39:10.737Z,9.64
2023-03-21T06:41:37.659Z,9.76
2023-03-21T06:44:08.080Z,9.82
2023-03-21T06:46:35.701Z,10.25
2023-03-21T06:49:04.216Z,10.50
2023-03-21T06:51:32.550Z,11.08
2023-03-21T06:53:59.624Z,11.53
2023-03-21T06:56:26.251Z,11.97
2023-03-21T06:58:52.820Z,11.71
2023-03-21T07:01:19.503Z,11.94
2023-03-21T07:03:46.023Z,11.60
2023-03-21T07:06:12.730Z,11.92
2023-03-21T07:08:41.359Z,12.31
2023-03-21T07:11:09.567Z,12.46
2023-03-21T07:13:36.631Z,13.03
2023-03-21T07:16:03.792Z,13.19
2023-03-21T07:18:30.491Z,13.14
2023-03-21T07:20:57.684Z,12.77
2023-03-21T07:23:28.234Z,12.69
2023-03-21T07:25:55.096Z,12.62
2023-03-21T07:28:23.058Z,12.75
2023-03-21T07:30:55.777Z,12.97
2023-03-21T07:33:22.934Z,12.79
2023-03-21T07:35:51.184Z,12.78
2023-03-21T07:38:18.350Z,12.68
2023-03-21T07:40:46.464Z,12.69
2023-03-21T07:43:13.197Z,13.11
2023-03-21T07:45:40.235Z,12.77
2023-03-21T07:48:07.187Z,13.12
2023-03-21T07:50:33.837Z,13.69
2023-03-21T07:53:03.190Z,13.86
2023-03-21T07:55:29.787Z,13.87
2023-03-21T07:57:56.302Z,14.44
2023-03-21T08:00:23.390Z,14.85
2023-03-21T08:02:58.728Z,14.88
2023-03-21T08:05:33.180Z,15.10
2023-03-21T08:07:59.922Z,15.08
2023-03-21T08:10:27.025Z,15.62
2023-03-21T08:12:54.212Z,15.90
2023-03-21T08:15:20.963Z,15.96
2023-03-21T08:17:47.591Z,16.07
2023-03-21T08:20:18.135Z,16.38
2023-03-21T08:22:45.064Z,16.76
2023-03-21T08:25:13.323Z,17.06
2023-03-21T08:27:44.123Z,17.39
2023-03-21T08:30:12.582Z,18.03
2023-03-21T08:32:40.237Z,18.66
2023-03-21T08:35:08.873Z,19.61
2023-03-21T08:37:36.649Z,20.11
2023-03-21T08:40:05.302Z,20.63
2023-03-21T08:42:31.866Z,21.03
2023-03-21T08:44:58.436Z,21.21
2023-03-21T08:47:24.983Z,20.89
2023-03-21T08:49:51.732Z,20.25
2023-03-21T08:52:21.309Z,20.04
2023-03-21T08:54:48.786Z,19.17
2023-03-21T08:57:18.800Z,19.39
2023-03-21T08:59:46.110Z,20.10
2023-03-21T09:02:17.153Z,20.98
2023-03-21T09:04:44.525Z,21.56
2023-03-21T09:07:12.349Z,22.01
2023-03-21T09:09:39.357Z,22.51
2023-03-21T09:12:06.164Z,23.61
2023-03-21T09:14:33.187Z,23.38
2023-03-21T09:16:59.724Z,23.38
2023-03-21T09:19:26.356Z,23.55
2023-03-21T09:21:52.964Z,23.65
2023-03-21T09:24:20.371Z,24.56
2023-03-21T09:26:47.270Z,25.55
2023-03-21T09:29:13.966Z,25.79
2023-03-21T09:31:40.664Z,26.00
2023-03-21T09:34:07.269Z,26.49
2023-03-21T09:36:33.923Z,26.69
2023-03-21T09:39:00.972Z,27.76
2023-03-21T09:41:32.385Z,27.65
2023-03-21T09:44:34.338Z,27.50
2023-03-21T09:47:23.853Z,27.22
2023-03-21T09:50:13.679Z,28.12
2023-03-21T09:52:50.126Z,28.78
2023-03-21T09:55:26.363Z,29.79
2023-03-21T09:58:21.681Z,31.66
2023-03-21T10:00:57.605Z,30.76
2023-03-21T10:03:29.022Z,30.12
2023-03-21T10:05:59.410Z,32.14
2023-03-21T10:08:30.023Z,29.74
2023-03-21T10:11:07.044Z,27.61
2023-03-21T10:13:39.378Z,27.99
2023-03-21T10:16:27.638Z,28.29
2023-03-21T10:18:55.277Z,28.58
2023-03-21T10:21:51.276Z,29.49
2023-03-21T10:24:13.833Z,29.22
2023-03-21T10:26:42.909Z,29.37
2023-03-21T10:29:17.217Z,30.68
2023-03-21T10:31:47.475Z,30.54
2023-03-21T10:34:44.755Z,31.67
2023-03-21T10:37:14.360Z,32.05
2023-03-21T10:39:49.499Z,29.87
2023-03-21T10:42:22.441Z,28.88
2023-03-21T10:44:50.884Z,28.87
2023-03-21T10:47:27.175Z,30.70
2023-03-21T10:50:11.285Z,30.43
2023-03-21T10:52:49.559Z,29.66
2023-03-21T10:55:19.077Z,28.88
2023-03-21T10:57:47.383Z,27.57
2023-03-21T11:00:21.536Z,29.53
2023-03-21T11:02:50.998Z,29.63
2023-03-21T11:05:25.542Z,29.47
2023-03-21T11:08:11.866Z,27.10
2023-03-21T11:10:52.525Z,27.92
2023-03-21T11:13:41.471Z,26.76
2023-03-21T11:16:32.060Z,27.01
2023-03-21T11:19:04.665Z,27.00
2023-03-21T11:21:39.177Z,27.14
2023-03-21T11:24:07.622Z,27.64
2023-03-21T11:26:37.656Z,28.00
2023-03-21T11:29:38.515Z,27.85
2023-03-21T11:32:26.190Z,27.48
2023-03-21T11:35:22.054Z,26.58
2023-03-21T11:37:54.911Z,25.75
2023-03-21T11:40:31.098Z,24.47
2023-03-21T11:43:18.411Z,24.12
2023-03-21T11:45:58.924Z,23.51
2023-03-21T11:48:25.941Z,23.79
2023-03-21T11:51:04.021Z,23.74
2023-03-21T11:53:40.196Z,23.43
2023-03-21T11:56:27.273Z,23.28
2023-03-21T11:59:07.596Z,23.22
2023-03-21T12:02:12.059Z,23.15
2023-03-21T12:04:41.848Z,22.71
2023-03-21T12:07:11.336Z,22.73
2023-03-21T12:09:51.705Z,22.20
2023-03-21T12:12:36.542Z,22.43
2023-03-21T12:15:19.993Z,22.11
2023-03-21T12:18:01.681Z,22.33
2023-03-21T12:20:39.305Z,22.02
2023-03-21T12:23:20.903Z,21.92
2023-03-21T12:26:03.646Z,21.67
2023-03-21T12:28:45.316Z,21.59
2023-03-21T12:31:35.014Z,21.19
2023-03-21T12:34:35.728Z,20.92
2023-03-21T12:37:05.149Z,20.98
2023-03-21T12:39:36.300Z,20.33
2023-03-21T12:42:40.048Z,20.67
2023-03-21T12:45:24.686Z,20.74
2023-03-21T12:48:14.445Z,20.66
2023-03-21T12:50:41.601Z,20.27
2023-03-21T12:53:32.742Z,20.34
2023-03-21T12:56:05.126Z,20.03
2023-03-21T12:58:43.024Z,20.04
2023-03-21T13:01:11.879Z,19.89
2023-03-21T13:03:42.574Z,19.79
2023-03-21T13:06:21.042Z,19.92
2023-03-21T13:09:18.114Z,19.45
2023-03-21T13:11:47.980Z,19.62
2023-03-21T13:14:22.875Z,19.77
2023-03-21T13:16:53.364Z,19.84
2023-03-21T13:19:38.644Z,19.76
2023-03-21T13:22:10.790Z,19.70
2023-03-21T13:25:09.419Z,19.64
2023-03-21T13:27:38.570Z,19.35
2023-03-21T13:30:14.380Z,19.53
2023-03-21T13:32:43.942Z,19.45
2023-03-21T13:35:18.721Z,19.44
2023-03-21T13:37:57.132Z,19.49
2023-03-21T13:40:35.083Z,19.64
2023-03-21T13:43:02.038Z,19.35
2023-03-21T13:45:52.129Z,19.45
2023-03-21T13:48:30.878Z,19.52
2023-03-21T13:51:03.237Z,19.57
2023-03-21T13:53:37.496Z,19.56
2023-03-21T13:56:14.660Z,19.61
2023-03-21T13:58:44.045Z,19.76
2023-03-21T14:01:10.608Z,19.83
2023-03-21T14:03:38.048Z,19.74
2023-03-21T14:06:05.996Z,19.70
2023-03-21T14:08:38.514Z,19.55
2023-03-21T14:11:09.310Z,19.53
2023-03-21T14:13:48.370Z,19.30
2023-03-21T14:16:18.857Z,19.28
2023-03-21T14:18:56.231Z,19.05
2023-03-21T14:21:29.211Z,18.96
2023-03-21T14:24:07.386Z,18.80
2023-03-21T14:26:42.198Z,18.84
2023-03-21T14:29:25.026Z,18.87
2023-03-21T14:31:54.566Z,18.94
2023-03-21T14:34:22.995Z,19.04
2023-03-21T14:36:57.506Z,18.99
2023-03-21T14:39:30.997Z,19.04
2023-03-21T14:42:04.102Z,19.09
2023-03-21T14:44:44.140Z,18.93
2023-03-21T14:47:24.804Z,18.66
2023-03-21T14:49:52.005Z,18.37
2023-03-21T14:52:37.095Z,18.37
2023-03-21T14:55:14.963Z,18.34
2023-03-21T14:57:42.189Z,18.31
2023-03-21T15:00:23.726Z,18.28
2023-03-21T15:02:51.890Z,18.18
2023-03-21T15:05:32.325Z,18.02
2023-03-21T15:08:02.059Z,17.94
2023-03-21T15:10:30.938Z,17.90
2023-03-21T15:13:01.179Z,17.84
2023-03-21T15:15:31.884Z,17.90
2023-03-21T15:18:05.140Z,17.86
2023-03-21T15:20:35.505Z,17.78
2023-03-21T15:23:07.064Z,17.77
2023-03-21T15:25:36.104Z,17.70
2023-03-21T15:28:05.389Z,17.67
2023-03-21T15:30:33.008Z,17.57
2023-03-21T15:33:07.721Z,17.46
2023-03-21T15:35:46.124Z,17.37
2023-03-21T15:38:40.818Z,17.29
2023-03-21T15:41:25.145Z,17.35
2023-03-21T15:44:10.337Z,17.25
2023-03-21T15:46:46.427Z,17.09
2023-03-21T15:49:12.923Z,17.05
2023-03-21T15:51:41.925Z,16.97
2023-03-21T15:54:17.799Z,16.95
2023-03-21T15:56:44.755Z,16.95
2023-03-21T15:59:16.309Z,16.85
2023-03-21T16:01:47.521Z,16.80
2023-03-21T16:04:14.519Z,16.77
2023-03-21T16:07:13.338Z,16.70
2023-03-21T16:09:48.321Z,16.59
2023-03-21T16:12:17.498Z,16.56
2023-03-21T16:14:45.254Z,16.47
2023-03-21T16:17:38.122Z,16.40
2023-03-21T16:20:17.828Z,16.35
2023-03-21T16:22:44.405Z,16.33
2023-03-21T16:25:12.135Z,16.25
2023-03-21T16:27:38.969Z,16.23
2023-03-21T16:30:06.741Z,16.19
2023-03-21T16:32:33.760Z,16.03
2023-03-21T16:35:01.234Z,16.03
2023-03-21T16:37:27.812Z,15.89
2023-03-21T16:39:54.440Z,15.84
2023-03-21T16:42:20.991Z,15.86
2023-03-21T16:44:47.558Z,15.81
2023-03-21T16:47:19.495Z,15.77
2023-03-21T16:49:46.993Z,15.67
2023-03-21T16:52:14.590Z,15.63
2023-03-21T16:54:42.048Z,15.56
2023-03-21T16:57:21.097Z,15.50
2023-03-21T16:59:47.724Z,15.50
2023-03-21T17:02:15.699Z,15.43
2023-03-21T17:04:42.580Z,15.30
2023-03-21T17:07:15.171Z,15.25
2023-03-21T17:09:43.234Z,15.22
2023-03-21T17:12:15.687Z,15.14
2023-03-21T17:14:44.541Z,15.04
2023-03-21T17:17:13.121Z,14.97
2023-03-21T17:19:43.613Z,14.74
2023-03-21T17:22:12.571Z,14.67
2023-03-21T17:24:40.870Z,14.52
2023-03-21T17:27:11.458Z,14.48
2023-03-21T17:29:38.229Z,14.36
2023-03-21T17:32:05.008Z,14.29
2023-03-21T17:34:31.630Z,14.17
2023-03-21T17:36:59.004Z,14.10
2023-03-21T17:39:27.103Z,14.11
2023-03-21T17:41:54.437Z,14.06
2023-03-21T17:44:21.078Z,13.99
2023-03-21T17:46:50.309Z,13.99
2023-03-21T17:49:18.117Z,13.84
2023-03-21T17:51:44.636Z,13.88
2023-03-21T17:54:11.128Z,13.77
2023-03-21T17:56:37.694Z,13.72
2023-03-21T17:59:07.173Z,13.72
2023-03-21T18:01:34.728Z,13.58
2023-03-21T18:04:04.082Z,13.63
2023-03-21T18:06:32.840Z,13.60
2023-03-21T18:09:00.456Z,13.56
2023-03-21T18:11:27.580Z,13.49
2023-03-21T18:14:06.556Z,13.40
2023-03-21T18:16:40.774Z,13.41
2023-03-21T18:19:07.333Z,13.39
2023-03-21T18:21:35.776Z,13.32
2023-03-21T18:24:02.466Z,13.36
2023-03-21T18:26:31.103Z,13.24
2023-03-21T18:29:57.017Z,13.23
2023-03-21T18:32:05.093Z,13.09
2023-03-21T18:34:33.073Z,13.10
2023-03-21T18:36:59.757Z,13.10
2023-03-21T18:39:30.193Z,13.07
2023-03-21T18:41:58.016Z,12.99
2023-03-21T18:44:25.053Z,12.88
2023-03-21T18:46:52.303Z,12.83
2023-03-21T18:50:02.114Z,12.80
2023-03-21T18:52:06.080Z,12.70
2023-03-21T18:54:32.738Z,12.68
2023-03-21T18:57:34.607Z,12.52
2023-03-21T18:59:48.137Z,12.50
2023-03-21T19:02:15.238Z,12.44
2023-03-21T19:04:45.082Z,12.42
2023-03-21T19:07:12.115Z,12.34
2023-03-21T19:10:05.198Z,12.21
2023-03-21T19:12:28.122Z,12.20
2023-03-21T19:14:55.247Z,12.15
2023-03-21T19:18:26.157Z,12.21
2023-03-21T19:20:11.526Z,12.12
2023-03-21T19:22:38.128Z,12.05
2023-03-21T19:25:05.586Z,12.02
2023-03-21T19:27:38.291Z,12.07
2023-03-21T19:30:14.480Z,11.97
2023-03-21T19:32:42.943Z,12.04
2023-03-21T19:35:10.449Z,12.04
2023-03-21T19:37:37.011Z,12.01
2023-03-21T19:40:08.046Z,12.01
2023-03-21T19:42:34.745Z,12.02
2023-03-21T19:45:01.395Z,12.02
2023-03-21T19:47:27.959Z,12.07
2023-03-21T19:52:41.268Z,12.03
2023-03-21T19:55:08.384Z,12.00
2023-03-21T19:57:35.752Z,12.03
2023-03-21T20:00:02.436Z,11.99
2023-03-21T20:02:37.132Z,12.01
2023-03-21T20:05:05.902Z,12.03
2023-03-21T20:07:32.983Z,12.02
2023-03-21T20:10:00.247Z,12.00
2023-03-21T20:12:26.915Z,11.96
2023-03-21T20:15:01.010Z,11.92
2023-03-21T20:17:37.900Z,11.92
2023-03-21T20:20:04.869Z,11.95
2023-03-21T20:23:03.382Z,11.90
2023-03-21T20:25:21.628Z,11.92
2023-03-21T20:28:12.720Z,11.93
2023-03-21T20:30:49.419Z,12.00
2023-03-21T20:33:16.215Z,12.03
2023-03-21T20:38:30.048Z,11.98
2023-03-21T20:41:00.917Z,11.95
2023-03-21T20:46:15.808Z,11.96
2023-03-21T20:48:42.378Z,11.92
2023-03-21T20:54:00.813Z,11.99
2023-03-21T20:56:27.501Z,11.93
2023-03-21T20:59:17.695Z,11.91
2023-03-21T21:01:40.612Z,11.84
2023-03-21T21:04:07.216Z,11.86
2023-03-21T21:06:33.993Z,11.81
2023-03-21T21:09:00.642Z,11.84
2023-03-21T21:12:04.986Z,11.80
2023-03-21T21:14:17.972Z,11.71
2023-03-21T21:16:44.969Z,11.68
2023-03-21T21:19:11.670Z,11.75
2023-03-21T21:21:38.326Z,11.68
2023-03-21T21:24:07.504Z,11.66
2023-03-21T21:26:35.203Z,11.67
2023-03-21T21:29:01.845Z,11.62
2023-03-21T21:31:28.529Z,11.66
2023-03-21T21:33:55.126Z,11.58
2023-03-21T21:36:21.775Z,11.62
2023-03-21T21:38:48.439Z,11.64
2023-03-21T21:41:19.330Z,11.63
2023-03-21T21:43:46.654Z,11.60
2023-03-21T21:46:13.953Z,11.60
2023-03-21T21:48:41.920Z,11.65
2023-03-21T21:51:09.015Z,11.55
2023-03-21T21:53:36.251Z,11.53
2023-03-21T21:56:04.319Z,11.46
2023-03-21T21:58:30.882Z,11.45
2023-03-21T22:01:01.424Z,11.45
2023-03-21T22:03:28.181Z,11.40
2023-03-21T22:06:02.064Z,11.35
2023-03-21T22:08:28.656Z,11.34
2023-03-21T22:10:55.281Z,11.31
2023-03-21T22:13:21.972Z,11.33
2023-03-21T22:15:48.527Z,11.33
2023-03-21T22:18:15.085Z,11.34
2023-03-21T22:20:41.629Z,11.27
2023-03-21T22:23:08.176Z,11.32
2023-03-21T22:25:34.781Z,11.34
2023-03-21T22:28:01.311Z,11.36
2023-03-21T22:30:27.955Z,11.32
2023-03-21T22:33:08.565Z,11.36
2023-03-21T22:35:36.100Z,11.28
2023-03-21T22:38:02.794Z,11.31
2023-03-21T22:40:29.367Z,11.34
2023-03-21T22:42:55.864Z,11.37
2023-03-21T22:45:22.429Z,11.37
2023-03-21T22:47:49.016Z,11.40
2023-03-21T22:50:15.572Z,11.41
2023-03-21T22:52:42.099Z,11.38
2023-03-21T22:55:08.946Z,11.42
2023-03-21T22:57:35.699Z,11.40
2023-03-21T23:00:02.640Z,11.36
2023-03-21T23:02:29.191Z,11.36
2023-03-21T23:04:55.754Z,11.40
2023-03-21T23:07:22.346Z,11.40
2023-03-21T23:09:49.047Z,11.40
2023-03-21T23:12:15.666Z,11.37
2023-03-21T23:14:42.352Z,11.35
2023-03-21T23:17:08.924Z,11.26
2023-03-21T23:19:35.681Z,11.25
2023-03-21T23:22:02.214Z,11.25
2023-03-21T23:24:28.780Z,11.23
2023-03-21T23:26:55.409Z,11.14
2023-03-21T23:29:22.007Z,11.12
2023-03-21T23:31:48.622Z,11.05
2023-03-21T23:34:15.364Z,11.05
2023-03-21T23:36:42.032Z,11.01
2023-03-21T23:39:09.243Z,11.01
2023-03-21T23:41:35.835Z,10.99
2023-03-21T23:44:02.924Z,10.93
2023-03-21T23:46:29.516Z,10.92
2023-03-21T23:48:56.092Z,10.84
2023-03-21T23:51:22.939Z,10.78
2023-03-21T23:53:49.773Z,10.76
2023-03-21T23:56:21.598Z,10.79
2023-03-21T23:58:48.937Z,10.74
